createdAt,value
2023-03-07T00:01:48.078Z,100.00
2023-03-07T00:04:14.734Z,100.00
2023-03-07T00:06:41.207Z,100.00
2023-03-07T00:09:07.798Z,100.00
2023-03-07T00:11:34.221Z,100.00
2023-03-07T00:14:00.661Z,100.00
2023-03-07T00:16:27.359Z,100.00
2023-03-07T00:18:55.184Z,100.00
2023-03-07T00:21:22.518Z,100.00
2023-03-07T00:23:49.246Z,100.00
2023-03-07T00:26:21.533Z,100.00
2023-03-07T00:28:50.932Z,100.00
2023-03-07T00:31:18.930Z,100.00
2023-03-07T00:33:45.448Z,100.00
2023-03-07T00:36:23.052Z,100.00
2023-03-07T00:38:50.268Z,100.00
2023-03-07T00:41:34.855Z,100.00
2023-03-07T00:44:01.243Z,100.00
2023-03-07T00:46:27.923Z,100.00
2023-03-07T00:48:55.194Z,100.00
2023-03-07T00:51:23.509Z,100.00
2023-03-07T00:53:50.359Z,100.00
2023-03-07T00:56:22.918Z,100.00
2023-03-07T00:58:50.397Z,100.00
2023-03-07T01:01:21.122Z,100.00
2023-03-07T01:03:53.387Z,100.00
2023-03-07T01:06:23.250Z,100.00
2023-03-07T01:08:49.694Z,100.00
2023-03-07T01:11:16.877Z,100.00
2023-03-07T01:13:43.389Z,100.00
2023-03-07T01:16:21.511Z,100.00
2023-03-07T01:18:54.327Z,100.00
2023-03-07T01:21:27.259Z,100.00
2023-03-07T01:23:54.634Z,100.00
2023-03-07T01:26:27.494Z,100.00
2023-03-07T01:28:56.388Z,100.00
2023-03-07T01:31:23.689Z,100.00
2023-03-07T01:33:52.157Z,100.00
2023-03-07T01:36:30.998Z,100.00
2023-03-07T01:39:02.700Z,100.00
2023-03-07T01:41:32.153Z,100.00
2023-03-07T01:43:59.795Z,100.00
2023-03-07T01:46:45.165Z,100.00
2023-03-07T01:49:20.956Z,100.00
2023-03-07T01:51:51.860Z,100.00
2023-03-07T01:54:20.490Z,100.00
2023-03-07T01:56:47.786Z,100.00
2023-03-07T01:59:19.247Z,100.00
2023-03-07T02:01:45.663Z,100.00
2023-03-07T02:04:28.455Z,100.00
2023-03-07T02:06:54.902Z,100.00
2023-03-07T02:09:23.951Z,100.00
2023-03-07T02:11:50.454Z,100.00
2023-03-07T02:14:16.978Z,100.00
2023-03-07T02:16:43.496Z,100.00
2023-03-07T02:19:26.672Z,100.00
2023-03-07T02:22:08.845Z,100.00
2023-03-07T02:24:48.231Z,100.00
2023-03-07T02:27:15.051Z,100.00
2023-03-07T02:32:28.012Z,100.00
2023-03-07T02:34:54.524Z,100.00
2023-03-07T02:37:20.860Z,100.00
2023-03-07T02:39:48.409Z,100.00
2023-03-07T02:42:21.311Z,100.00
2023-03-07T02:44:56.894Z,100.00
2023-03-07T02:47:23.496Z,100.00
2023-03-07T02:49:49.934Z,100.00
2023-03-07T02:52:16.468Z,100.00
2023-03-07T02:54:42.854Z,100.00
2023-03-07T02:57:10.567Z,100.00
2023-03-07T02:59:37.238Z,100.00
2023-03-07T03:02:03.972Z,100.00
2023-03-07T03:04:30.395Z,100.00
2023-03-07T03:06:57.014Z,100.00
2023-03-07T03:09:23.583Z,100.00
2023-03-07T03:11:49.980Z,100.00
2023-03-07T03:14:16.337Z,100.00
2023-03-07T03:16:42.876Z,100.00
2023-03-07T03:19:09.534Z,100.00
2023-03-07T03:21:35.960Z,100.00
2023-03-07T03:24:06.995Z,100.00
2023-03-07T03:26:34.531Z,100.00
2023-03-07T03:29:01.731Z,100.00
2023-03-07T03:31:31.336Z,100.00
2023-03-07T03:33:59.158Z,100.00
2023-03-07T03:36:26.686Z,100.00
2023-03-07T03:38:57.255Z,100.00
2023-03-07T03:41:24.539Z,100.00
2023-03-07T03:43:51.469Z,100.00
2023-03-07T03:46:19.650Z,100.00
2023-03-07T03:48:56.219Z,100.00
2023-03-07T03:51:24.393Z,100.00
2023-03-07T03:53:51.343Z,100.00
2023-03-07T03:56:20.534Z,100.00
2023-03-07T03:58:52.151Z,100.00
2023-03-07T04:01:21.003Z,100.00
2023-03-07T04:03:50.076Z,100.00
2023-03-07T04:06:19.889Z,100.00
2023-03-07T04:08:46.914Z,100.00
2023-03-07T04:11:13.705Z,100.00
2023-03-07T04:13:40.368Z,100.00
2023-03-07T04:16:07.206Z,100.00
2023-03-07T04:18:35.087Z,100.00
2023-03-07T04:21:01.667Z,100.00
2023-03-07T04:23:28.736Z,100.00
2023-03-07T04:25:57.607Z,100.00
2023-03-07T04:28:26.072Z,100.00
2023-03-07T04:30:53.168Z,100.00
2023-03-07T04:33:20.246Z,100.00
2023-03-07T04:35:46.803Z,100.00
2023-03-07T04:38:15.292Z,100.00
2023-03-07T04:40:41.775Z,100.00
2023-03-07T04:43:08.307Z,100.00
2023-03-07T04:45:37.204Z,100.00
2023-03-07T04:48:04.140Z,100.00
2023-03-07T04:50:30.518Z,100.00
2023-03-07T04:52:56.908Z,100.00
2023-03-07T04:55:23.399Z,100.00
2023-03-07T04:57:51.886Z,100.00
2023-03-07T05:00:19.452Z,100.00
2023-03-07T05:02:46.758Z,100.00
2023-03-07T05:05:13.145Z,100.00
2023-03-07T05:07:39.601Z,100.00
2023-03-07T05:10:06.572Z,100.00
2023-03-07T05:12:32.986Z,100.00
2023-03-07T05:15:00.845Z,100.00
2023-03-07T05:17:27.303Z,100.00
2023-03-07T05:19:56.498Z,100.00
2023-03-07T05:22:23.214Z,100.00
2023-03-07T05:24:49.558Z,100.00
2023-03-07T05:27:16.551Z,100.00
2023-03-07T05:29:43.061Z,100.00
2023-03-07T05:32:10.953Z,100.00
2023-03-07T05:34:38.351Z,100.00
2023-03-07T05:37:05.098Z,100.00
2023-03-07T05:39:31.571Z,100.00
2023-03-07T05:41:57.976Z,100.00
2023-03-07T05:44:24.411Z,100.00
2023-03-07T05:46:50.793Z,100.00
2023-03-07T05:49:17.266Z,100.00
2023-03-07T05:51:43.707Z,100.00
2023-03-07T05:54:10.132Z,100.00
2023-03-07T05:56:37.685Z,100.00
2023-03-07T05:59:04.367Z,100.00
2023-03-07T06:01:30.766Z,100.00
2023-03-07T06:03:57.187Z,100.00
2023-03-07T06:06:23.681Z,100.00
2023-03-07T06:08:50.068Z,99.35
2023-03-07T06:11:16.480Z,98.67
2023-03-07T06:13:42.954Z,98.58
2023-03-07T06:16:09.420Z,98.39
2023-03-07T06:18:35.854Z,98.38
2023-03-07T06:21:05.180Z,97.41
2023-03-07T06:23:33.938Z,97.76
2023-03-07T06:26:01.362Z,96.97
2023-03-07T06:28:28.275Z,97.86
2023-03-07T06:30:54.688Z,97.33
2023-03-07T06:33:21.213Z,97.46
2023-03-07T06:35:47.714Z,97.50
2023-03-07T06:38:15.759Z,98.00
2023-03-07T06:40:42.627Z,97.63
2023-03-07T06:43:12.132Z,97.49
2023-03-07T06:45:38.592Z,98.73
2023-03-07T06:48:05.100Z,98.24
2023-03-07T06:50:35.361Z,99.18
2023-03-07T06:53:02.084Z,98.65
2023-03-07T06:55:28.501Z,98.62
2023-03-07T06:57:55.150Z,99.59
2023-03-07T07:00:22.650Z,100.00
2023-03-07T07:02:49.888Z,100.00
2023-03-07T07:05:16.528Z,100.00
2023-03-07T07:07:42.922Z,100.00
2023-03-07T07:10:10.122Z,100.00
2023-03-07T07:12:36.536Z,99.81
2023-03-07T07:15:05.547Z,99.95
2023-03-07T07:17:35.568Z,100.00
2023-03-07T07:20:06.689Z,100.00
2023-03-07T07:22:33.523Z,99.93
2023-03-07T07:24:59.970Z,100.00
2023-03-07T07:27:28.258Z,100.00
2023-03-07T07:29:54.684Z,99.18
2023-03-07T07:32:21.168Z,98.93
2023-03-07T07:34:47.745Z,98.83
2023-03-07T07:37:14.298Z,99.43
2023-03-07T07:39:43.737Z,99.45
2023-03-07T07:42:11.558Z,98.73
2023-03-07T07:44:37.994Z,98.99
2023-03-07T07:47:04.538Z,98.93
2023-03-07T07:49:30.997Z,98.65
2023-03-07T07:51:57.451Z,97.91
2023-03-07T07:54:24.035Z,96.79
2023-03-07T07:56:50.442Z,97.51
2023-03-07T07:59:16.808Z,96.09
2023-03-07T08:01:43.367Z,96.72
2023-03-07T08:04:09.781Z,95.99
2023-03-07T08:06:36.339Z,96.13
2023-03-07T08:09:03.164Z,96.32
2023-03-07T08:11:29.621Z,95.10
2023-03-07T08:13:56.060Z,94.58
2023-03-07T08:16:23.313Z,94.56
2023-03-07T08:18:53.512Z,94.22
2023-03-07T08:21:21.090Z,94.63
2023-03-07T08:23:47.722Z,95.02
2023-03-07T08:26:14.326Z,94.80
2023-03-07T08:28:41.868Z,93.82
2023-03-07T08:31:14.035Z,93.01
2023-03-07T08:33:40.907Z,93.58
2023-03-07T08:36:07.801Z,93.10
2023-03-07T08:38:34.828Z,93.64
2023-03-07T08:41:02.224Z,93.74
2023-03-07T08:43:30.889Z,93.07
2023-03-07T08:45:57.704Z,92.70
2023-03-07T08:48:24.647Z,92.91
2023-03-07T08:50:53.208Z,93.67
2023-03-07T08:53:21.353Z,94.21
2023-03-07T08:55:48.067Z,94.65
2023-03-07T08:58:14.570Z,93.81
2023-03-07T09:00:41.215Z,93.36
2023-03-07T09:03:07.767Z,94.33
2023-03-07T09:05:37.661Z,95.08
2023-03-07T09:08:04.873Z,94.92
2023-03-07T09:10:31.274Z,95.09
2023-03-07T09:12:58.475Z,95.28
2023-03-07T09:15:25.550Z,95.65
2023-03-07T09:17:51.938Z,95.14
2023-03-07T09:20:18.707Z,96.31
2023-03-07T09:22:46.788Z,97.24
2023-03-07T09:25:13.760Z,96.25
2023-03-07T09:27:40.286Z,96.41
2023-03-07T09:30:07.582Z,95.61
2023-03-07T09:32:34.206Z,96.29
2023-03-07T09:35:00.665Z,95.75
2023-03-07T09:37:27.192Z,96.66
2023-03-07T09:39:53.579Z,95.85
2023-03-07T09:42:24.890Z,95.50
2023-03-07T09:45:07.933Z,96.05
2023-03-07T09:48:03.825Z,95.83
2023-03-07T09:50:52.234Z,96.19
2023-03-07T09:53:37.767Z,97.07
2023-03-07T09:56:12.364Z,96.47
2023-03-07T09:58:43.372Z,97.00
2023-03-07T10:01:12.323Z,96.67
2023-03-07T10:04:14.312Z,96.27
2023-03-07T10:06:43.454Z,95.92
2023-03-07T10:09:19.036Z,95.83
2023-03-07T10:12:00.582Z,94.48
2023-03-07T10:15:03.761Z,93.30
2023-03-07T10:17:49.014Z,92.13
2023-03-07T10:20:35.291Z,91.08
2023-03-07T10:23:32.549Z,89.60
2023-03-07T10:26:18.655Z,88.71
2023-03-07T10:28:46.574Z,90.11
2023-03-07T10:31:16.888Z,89.57
2023-03-07T10:33:47.366Z,87.83
2023-03-07T10:36:20.213Z,88.59
2023-03-07T10:38:55.821Z,89.18
2023-03-07T10:41:22.765Z,91.16
2023-03-07T10:43:52.110Z,91.41
2023-03-07T10:46:27.487Z,89.67
2023-03-07T10:49:01.603Z,88.86
2023-03-07T10:51:44.999Z,89.26
2023-03-07T10:54:18.808Z,88.80
2023-03-07T10:57:13.052Z,89.51
2023-03-07T10:59:43.550Z,87.41
2023-03-07T11:02:28.494Z,87.55
2023-03-07T11:04:55.442Z,88.46
2023-03-07T11:07:28.375Z,86.31
2023-03-07T11:09:56.599Z,86.72
2023-03-07T11:12:25.408Z,86.63
2023-03-07T11:15:18.252Z,84.97
2023-03-07T11:17:46.773Z,86.01
2023-03-07T11:20:46.292Z,84.43
2023-03-07T11:23:23.456Z,83.24
2023-03-07T11:25:51.613Z,85.33
2023-03-07T11:28:33.499Z,83.51
2023-03-07T11:31:28.969Z,82.01
2023-03-07T11:34:00.779Z,81.60
2023-03-07T11:36:36.448Z,84.22
2023-03-07T11:39:15.284Z,83.88
2023-03-07T11:41:56.017Z,79.80
2023-03-07T11:44:46.203Z,80.57
2023-03-07T11:47:12.538Z,80.38
2023-03-07T11:49:46.393Z,77.49
2023-03-07T11:52:45.733Z,78.18
2023-03-07T11:55:24.871Z,77.56
2023-03-07T11:57:54.054Z,78.63
2023-03-07T12:00:26.699Z,77.99
2023-03-07T12:03:04.548Z,77.81
2023-03-07T12:05:45.591Z,76.74
2023-03-07T12:08:40.612Z,76.81
2023-03-07T12:11:19.392Z,75.39
2023-03-07T12:13:54.654Z,75.77
2023-03-07T12:16:37.727Z,74.38
2023-03-07T12:19:25.837Z,73.91
2023-03-07T12:22:30.654Z,74.29
2023-03-07T12:25:26.330Z,73.79
2023-03-07T12:28:03.817Z,75.24
2023-03-07T12:31:00.748Z,74.89
2023-03-07T12:33:48.659Z,75.55
2023-03-07T12:36:26.427Z,75.33
2023-03-07T12:38:56.630Z,75.53
2023-03-07T12:41:52.024Z,74.12
2023-03-07T12:44:44.859Z,74.98
2023-03-07T12:47:44.119Z,73.03
2023-03-07T12:50:33.857Z,73.17
2023-03-07T12:53:11.023Z,72.63
2023-03-07T12:55:44.672Z,72.67
2023-03-07T12:58:39.986Z,71.92
2023-03-07T13:01:21.741Z,71.48
2023-03-07T13:03:56.503Z,72.81
2023-03-07T13:06:24.970Z,72.69
2023-03-07T13:08:58.460Z,71.30
2023-03-07T13:11:27.544Z,71.84
2023-03-07T13:13:56.930Z,71.02
2023-03-07T13:16:43.742Z,70.51
2023-03-07T13:19:31.227Z,70.12
2023-03-07T13:21:58.304Z,71.12
2023-03-07T13:24:42.108Z,70.88
2023-03-07T13:27:30.828Z,68.21
2023-03-07T13:30:12.439Z,68.34
2023-03-07T13:32:50.976Z,68.19
2023-03-07T13:35:29.486Z,68.52
2023-03-07T13:38:17.904Z,68.47
2023-03-07T13:40:44.220Z,66.31
2023-03-07T13:43:19.542Z,64.81
2023-03-07T13:45:56.667Z,64.53
2023-03-07T13:48:29.890Z,63.93
2023-03-07T13:50:59.254Z,64.29
2023-03-07T13:53:31.868Z,64.22
2023-03-07T13:56:04.641Z,64.79
2023-03-07T13:58:37.671Z,64.88
2023-03-07T14:01:20.686Z,63.78
2023-03-07T14:03:53.993Z,63.82
2023-03-07T14:06:22.204Z,64.45
2023-03-07T14:08:50.980Z,64.77
2023-03-07T14:11:31.028Z,64.24
2023-03-07T14:14:15.786Z,64.66
2023-03-07T14:17:19.950Z,63.16
2023-03-07T14:20:11.295Z,63.42
2023-03-07T14:22:54.987Z,63.17
2023-03-07T14:25:26.634Z,63.42
2023-03-07T14:28:17.813Z,63.02
2023-03-07T14:30:55.093Z,64.19
2023-03-07T14:33:22.093Z,64.83
2023-03-07T14:35:48.548Z,64.82
2023-03-07T14:38:22.433Z,65.36
2023-03-07T14:41:06.747Z,65.48
2023-03-07T14:43:53.029Z,65.17
2023-03-07T14:46:33.808Z,64.77
2023-03-07T14:49:03.298Z,64.96
2023-03-07T14:51:30.822Z,65.07
2023-03-07T14:53:57.684Z,64.55
2023-03-07T14:56:27.852Z,64.89
2023-03-07T14:59:01.812Z,65.49
2023-03-07T15:01:40.193Z,66.16
2023-03-07T15:04:29.777Z,67.06
2023-03-07T15:07:01.772Z,67.06
2023-03-07T15:09:28.890Z,67.18
2023-03-07T15:12:07.875Z,67.29
2023-03-07T15:14:46.447Z,68.15
2023-03-07T15:17:27.419Z,68.79
2023-03-07T15:20:07.556Z,69.31
2023-03-07T15:22:40.273Z,70.01
2023-03-07T15:25:17.664Z,70.04
2023-03-07T15:27:44.204Z,70.29
2023-03-07T15:30:23.769Z,71.66
2023-03-07T15:33:03.789Z,72.20
2023-03-07T15:35:30.401Z,72.09
2023-03-07T15:38:00.232Z,71.84
2023-03-07T15:40:29.158Z,71.75
2023-03-07T15:43:15.337Z,72.49
2023-03-07T15:45:43.785Z,72.82
2023-03-07T15:48:24.193Z,73.57
2023-03-07T15:50:55.488Z,73.02
2023-03-07T15:53:31.062Z,73.46
2023-03-07T15:55:59.678Z,74.36
2023-03-07T15:58:27.133Z,73.81
2023-03-07T16:01:17.915Z,74.63
2023-03-07T16:03:53.396Z,75.14
2023-03-07T16:06:38.128Z,75.84
2023-03-07T16:09:05.786Z,84.88
2023-03-07T16:11:32.854Z,86.85
2023-03-07T16:13:59.778Z,90.76
2023-03-07T16:16:30.409Z,94.62
2023-03-07T16:19:00.364Z,100.00
2023-03-07T16:21:27.175Z,100.00
2023-03-07T16:23:53.674Z,100.00
2023-03-07T16:26:22.764Z,100.00
2023-03-07T16:28:53.718Z,100.00
2023-03-07T16:31:21.040Z,100.00
2023-03-07T16:33:47.991Z,100.00
2023-03-07T16:36:15.325Z,100.00
2023-03-07T16:38:42.137Z,100.00
2023-03-07T16:41:16.943Z,100.00
2023-03-07T16:43:45.106Z,100.00
2023-03-07T16:46:15.194Z,100.00
2023-03-07T16:48:42.908Z,100.00
2023-03-07T16:51:16.701Z,100.00
2023-03-07T16:53:47.529Z,100.00
2023-03-07T16:56:30.945Z,100.00
2023-03-07T16:58:58.171Z,100.00
2023-03-07T17:01:24.699Z,100.00
2023-03-07T17:03:51.142Z,100.00
2023-03-07T17:06:18.301Z,100.00
2023-03-07T17:08:45.797Z,100.00
2023-03-07T17:11:21.298Z,100.00
2023-03-07T17:13:50.672Z,100.00
2023-03-07T17:16:17.908Z,100.00
2023-03-07T17:18:44.876Z,100.00
2023-03-07T17:21:16.501Z,100.00
2023-03-07T17:23:44.958Z,100.00
2023-03-07T17:26:32.906Z,100.00
2023-03-07T17:29:05.446Z,100.00
2023-03-07T17:31:31.909Z,100.00
2023-03-07T17:33:58.254Z,100.00
2023-03-07T17:36:24.623Z,100.00
2023-03-07T17:38:51.047Z,100.00
2023-03-07T17:41:17.640Z,100.00
2023-03-07T17:43:43.999Z,100.00
2023-03-07T17:46:11.644Z,100.00
2023-03-07T17:48:38.296Z,100.00
2023-03-07T17:51:09.491Z,100.00
2023-03-07T17:53:37.341Z,100.00
2023-03-07T17:56:09.117Z,100.00
2023-03-07T17:58:35.506Z,100.00
2023-03-07T18:01:01.857Z,100.00
2023-03-07T18:03:28.241Z,100.00
2023-03-07T18:05:54.635Z,100.00
2023-03-07T18:08:21.025Z,100.00
2023-03-07T18:10:47.443Z,100.00
2023-03-07T18:13:14.876Z,100.00
2023-03-07T18:15:45.523Z,100.00
2023-03-07T18:18:11.919Z,100.00
2023-03-07T18:20:38.840Z,100.00
2023-03-07T18:23:05.204Z,100.00
2023-03-07T18:25:31.627Z,100.00
2023-03-07T18:28:01.450Z,100.00
2023-03-07T18:30:27.877Z,100.00
2023-03-07T18:32:55.284Z,100.00
2023-03-07T18:35:23.395Z,100.00
2023-03-07T18:37:49.800Z,100.00
2023-03-07T18:40:16.553Z,100.00
2023-03-07T18:42:43.042Z,100.00
2023-03-07T18:45:10.174Z,100.00
2023-03-07T18:47:36.608Z,100.00
2023-03-07T18:50:03.140Z,100.00
2023-03-07T18:52:29.523Z,100.00
2023-03-07T18:54:55.929Z,100.00
2023-03-07T18:57:22.325Z,100.00
2023-03-07T18:59:48.755Z,100.00
2023-03-07T19:02:15.234Z,100.00
2023-03-07T19:04:41.651Z,100.00
2023-03-07T19:07:08.063Z,100.00
2023-03-07T19:09:34.495Z,100.00
2023-03-07T19:12:00.865Z,100.00
2023-03-07T19:14:27.286Z,100.00
2023-03-07T19:16:53.719Z,100.00
2023-03-07T19:19:20.536Z,100.00
2023-03-07T19:21:46.941Z,100.00
2023-03-07T19:24:13.430Z,100.00
2023-03-07T19:26:41.550Z,100.00
2023-03-07T19:29:09.624Z,100.00
2023-03-07T19:31:36.214Z,100.00
2023-03-07T19:34:05.005Z,100.00
2023-03-07T19:36:32.231Z,100.00
2023-03-07T19:38:59.423Z,100.00
2023-03-07T19:41:27.634Z,100.00
2023-03-07T19:43:56.310Z,100.00
2023-03-07T19:46:23.014Z,100.00
2023-03-07T19:48:49.587Z,100.00
2023-03-07T19:51:22.528Z,100.00
2023-03-07T19:53:49.563Z,100.00
2023-03-07T19:56:20.044Z,100.00
2023-03-07T19:58:46.566Z,100.00
2023-03-07T20:01:15.811Z,100.00
2023-03-07T20:03:42.667Z,100.00
2023-03-07T20:06:14.248Z,100.00
2023-03-07T20:08:40.686Z,100.00
2023-03-07T20:11:18.552Z,100.00
2023-03-07T20:13:46.636Z,100.00
2023-03-07T20:16:13.962Z,100.00
2023-03-07T20:18:40.613Z,100.00
2023-03-07T20:21:12.948Z,100.00
2023-03-07T20:23:42.270Z,100.00
2023-03-07T20:26:14.431Z,100.00
2023-03-07T20:28:41.204Z,100.00
2023-03-07T20:31:09.419Z,100.00
2023-03-07T20:33:37.494Z,100.00
2023-03-07T20:36:07.764Z,100.00
2023-03-07T20:38:35.772Z,100.00
2023-03-07T20:41:04.949Z,100.00
2023-03-07T20:43:33.023Z,100.00
2023-03-07T20:46:10.356Z,100.00
2023-03-07T20:48:39.414Z,100.00
2023-03-07T20:51:10.058Z,100.00
2023-03-07T20:53:36.818Z,100.00
2023-03-07T20:56:05.090Z,100.00
2023-03-07T20:58:32.649Z,100.00
2023-03-07T21:00:59.926Z,100.00
2023-03-07T21:03:27.247Z,100.00
2023-03-07T21:05:59.595Z,100.00
2023-03-07T21:08:27.089Z,100.00
2023-03-07T21:11:03.964Z,100.00
2023-03-07T21:13:31.466Z,100.00
2023-03-07T21:16:00.225Z,100.00
2023-03-07T21:18:27.374Z,100.00
2023-03-07T21:20:53.795Z,100.00
2023-03-07T21:23:20.233Z,100.00
2023-03-07T21:25:47.169Z,100.00
2023-03-07T21:28:13.703Z,100.00
2023-03-07T21:30:40.219Z,100.00
2023-03-07T21:33:06.982Z,100.00
2023-03-07T21:35:39.671Z,100.00
2023-03-07T21:38:06.282Z,100.00
2023-03-07T21:40:32.840Z,100.00
2023-03-07T21:42:59.270Z,100.00
2023-03-07T21:45:25.831Z,100.00
2023-03-07T21:47:54.205Z,100.00
2023-03-07T21:50:20.787Z,100.00
2023-03-07T21:52:47.205Z,100.00
2023-03-07T21:55:13.721Z,100.00
2023-03-07T21:57:40.119Z,100.00
2023-03-07T22:00:08.342Z,100.00
2023-03-07T22:02:37.623Z,100.00
2023-03-07T22:05:04.880Z,100.00
2023-03-07T22:07:31.609Z,100.00
2023-03-07T22:09:58.032Z,100.00
2023-03-07T22:12:24.461Z,100.00
2023-03-07T22:14:50.901Z,100.00
2023-03-07T22:17:17.321Z,100.00
2023-03-07T22:19:43.853Z,100.00
2023-03-07T22:22:10.268Z,100.00
2023-03-07T22:24:36.711Z,100.00
2023-03-07T22:27:03.142Z,100.00
2023-03-07T22:29:29.646Z,100.00
2023-03-07T22:31:56.036Z,100.00
2023-03-07T22:34:22.483Z,100.00
2023-03-07T22:36:50.992Z,100.00
2023-03-07T22:39:17.667Z,100.00
2023-03-07T22:41:44.082Z,100.00
2023-03-07T22:44:11.262Z,100.00
2023-03-07T22:46:37.717Z,100.00
2023-03-07T22:49:04.092Z,100.00
2023-03-07T22:51:30.454Z,100.00
2023-03-07T22:53:56.893Z,100.00
2023-03-07T22:56:26.184Z,100.00
2023-03-07T22:58:53.586Z,100.00
2023-03-07T23:01:22.533Z,100.00
2023-03-07T23:03:50.727Z,100.00
2023-03-07T23:06:17.870Z,100.00
2023-03-07T23:08:45.503Z,100.00
2023-03-07T23:11:12.649Z,100.00
2023-03-07T23:13:39.137Z,100.00
2023-03-07T23:16:08.584Z,100.00
2023-03-07T23:18:35.499Z,100.00
2023-03-07T23:21:03.374Z,100.00
2023-03-07T23:23:29.764Z,100.00
2023-03-07T23:25:56.217Z,100.00
2023-03-07T23:28:22.638Z,100.00
2023-03-07T23:30:49.154Z,100.00
2023-03-07T23:33:15.615Z,100.00
2023-03-07T23:35:42.123Z,100.00
2023-03-07T23:38:12.065Z,100.00
2023-03-07T23:40:38.797Z,100.00
2023-03-07T23:43:05.365Z,100.00
2023-03-07T23:45:32.074Z,100.00
2023-03-07T23:47:58.653Z,100.00
2023-03-07T23:50:25.789Z,100.00
2023-03-07T23:52:52.230Z,100.00
2023-03-07T23:55:18.741Z,100.00
2023-03-07T23:57:48.311Z,100.00
